Time;durP1;ratioP1;P1;durP2;ratioP2;P2;SDS_P1;SDS_P2;PMS_P1;PMS_P2;Temp;Humidity;BMP_temperature;BMP_pressure;BME280_temperature;BME280_humidity;BME280_pressure;Samples;Min_cycle;Max_cycle;Signal;HPM_P1;HPM_P2
2021/10/18 00:00:35;;;;;;;4.05;2.20;;;11.20;99.90;;;;;;5022145;28;20052;-78
2021/10/18 00:03:01;;;;;;;2.70;1.75;;;11.10;99.90;;;;;;5046157;28;20171;-77
2021/10/18 00:05:27;;;;;;;2.35;1.70;;;11.10;99.90;;;;;;4984236;28;20038;-77
2021/10/18 00:07:53;;;;;;;2.53;1.98;;;11.10;99.90;;;;;;5028099;28;20033;-77
2021/10/18 00:10:18;;;;;;;3.58;1.83;;;11.10;99.90;;;;;;5025520;28;20045;-77
2021/10/18 00:12:47;;;;;;;3.53;2.15;;;11.10;99.90;;;;;;5018291;28;20037;-78
2021/10/18 00:15:16;;;;;;;5.20;2.60;;;11.10;99.90;;;;;;5010853;28;20061;-76
2021/10/18 00:17:42;;;;;;;4.28;3.03;;;11.10;99.90;;;;;;5033366;28;20554;-77
2021/10/18 00:20:09;;;;;;;;;;;11.10;99.90;;;;;;5013910;28;20057;-77
2021/10/18 00:22:35;;;;;;;4.47;1.65;;;11.10;99.90;;;;;;5031902;28;19921;-78
2021/10/18 00:25:01;;;;;;;5.43;2.05;;;11.10;99.90;;;;;;5016683;28;20112;-77
2021/10/18 00:27:27;;;;;;;5.45;2.00;;;11.10;99.90;;;;;;5026214;28;20152;-79
2021/10/18 00:29:52;;;;;;;6.78;2.22;;;11.10;99.90;;;;;;5017219;28;20124;-75
2021/10/18 00:32:18;;;;;;;2.33;1.85;;;11.10;99.90;;;;;;5027572;28;20083;-76
2021/10/18 00:34:44;;;;;;;8.68;2.20;;;11.10;99.90;;;;;;5020059;28;20044;-75
2021/10/18 00:37:09;;;;;;;2.63;2.35;;;11.10;99.90;;;;;;5026434;28;20044;-76
2021/10/18 00:39:35;;;;;;;3.22;2.58;;;11.10;99.90;;;;;;5020972;28;20077;-76
2021/10/18 00:42:01;;;;;;;2.90;1.95;;;11.10;99.90;;;;;;5024934;28;20477;-77
2021/10/18 00:44:26;;;;;;;4.55;3.08;;;11.00;99.90;;;;;;5043901;28;20045;-78
2021/10/18 00:46:52;;;;;;;2.60;1.83;;;11.00;99.90;;;;;;5016493;28;20472;-77
2021/10/18 00:49:18;;;;;;;3.58;2.53;;;10.90;99.90;;;;;;5004009;28;20053;-77
2021/10/18 00:51:44;;;;;;;5.07;2.75;;;10.80;99.90;;;;;;5022616;28;20041;-79
2021/10/18 00:54:10;;;;;;;5.20;2.70;;;10.80;99.90;;;;;;5029985;28;20043;-80
2021/10/18 00:56:36;;;;;;;3.70;2.38;;;10.80;99.90;;;;;;5017102;28;20033;-81
2021/10/18 00:59:02;;;;;;;3.15;2.28;;;10.80;99.90;;;;;;5028568;28;20057;-81
2021/10/18 01:01:29;;;;;;;15.65;2.95;;;10.80;99.90;;;;;;5027865;28;20057;-81
2021/10/18 01:03:57;;;;;;;2.28;1.88;;;10.70;99.90;;;;;;5035600;28;20041;-80
2021/10/18 01:06:22;;;;;;;2.55;1.63;;;10.70;99.90;;;;;;5025594;28;20045;-78
2021/10/18 01:08:48;;;;;;;5.50;3.13;;;10.70;99.90;;;;;;5021586;28;20045;-77
2021/10/18 01:11:14;;;;;;;3.50;2.42;;;10.70;99.90;;;;;;5030109;28;20046;-78
2021/10/18 01:13:40;;;;;;;2.83;2.58;;;10.80;99.90;;;;;;5020921;28;20507;-79
2021/10/18 01:16:07;;;;;;;3.92;2.83;;;10.70;99.90;;;;;;5022823;28;20121;-79
2021/10/18 01:18:33;;;;;;;4.50;2.65;;;10.70;99.90;;;;;;5001448;28;20037;-78
2021/10/18 01:20:59;;;;;;;6.35;2.65;;;10.70;99.90;;;;;;5023936;28;20049;-78
2021/10/18 01:23:25;;;;;;;3.72;2.08;;;10.70;99.90;;;;;;5018957;28;20036;-77
2021/10/18 01:25:52;;;;;;;7.03;3.58;;;10.60;99.90;;;;;;5026750;28;20079;-78
2021/10/18 01:28:18;;;;;;;2.80;2.08;;;10.70;99.90;;;;;;5040154;28;20045;-79
2021/10/18 01:30:44;;;;;;;3.40;2.42;;;10.60;99.90;;;;;;5019793;28;20118;-78
2021/10/18 01:33:10;;;;;;;7.15;2.70;;;10.60;99.90;;;;;;5027245;28;20040;-80
2021/10/18 01:35:36;;;;;;;4.72;2.90;;;10.60;99.90;;;;;;5024393;28;20423;-79
2021/10/18 01:38:02;;;;;;;2.55;2.13;;;10.60;99.90;;;;;;5015896;28;20041;-80
2021/10/18 01:40:28;;;;;;;6.95;2.58;;;10.50;99.90;;;;;;5022179;28;20478;-78
2021/10/18 01:42:54;;;;;;;;;;;10.60;99.90;;;;;;5019923;28;20044;-78
2021/10/18 01:45:21;;;;;;;4.75;2.67;;;10.60;99.90;;;;;;5038779;28;19931;-79
2021/10/18 01:47:47;;;;;;;2.95;1.75;;;10.50;99.90;;;;;;5027500;28;20498;-79
2021/10/18 01:50:17;;;;;;;3.53;2.28;;;10.50;99.90;;;;;;5014270;28;20053;-80
2021/10/18 01:52:45;;;;;;;4.22;1.75;;;10.50;99.90;;;;;;5024250;28;20049;-79
2021/10/18 01:55:13;;;;;;;3.90;2.53;;;10.40;99.90;;;;;;5017100;28;20033;-80
2021/10/18 01:57:39;;;;;;;3.90;2.25;;;10.40;99.90;;;;;;5016968;28;20041;-78
2021/10/18 02:00:06;;;;;;;2.92;2.45;;;10.50;99.90;;;;;;5008985;28;20033;-78
2021/10/18 02:02:31;;;;;;;4.88;2.85;;;10.40;99.90;;;;;;5033767;28;20051;-79
2021/10/18 02:04:57;;;;;;;5.82;2.83;;;10.50;99.90;;;;;;5031458;28;20041;-80
2021/10/18 02:07:23;;;;;;;3.25;2.10;;;10.40;99.90;;;;;;5014228;28;20052;-80
2021/10/18 02:09:50;;;;;;;2.63;2.30;;;10.50;99.90;;;;;;5031914;28;20044;-78
2021/10/18 02:12:16;;;;;;;4.35;2.10;;;10.50;99.90;;;;;;5034312;28;20045;-79
2021/10/18 02:14:41;;;;;;;4.18;2.25;;;10.50;99.90;;;;;;5026879;28;20532;-79
2021/10/18 02:17:07;;;;;;;4.97;3.42;;;10.50;99.90;;;;;;5026144;28;20043;-79
2021/10/18 02:19:33;;;;;;;5.05;3.53;;;10.50;99.90;;;;;;5032522;28;20352;-79
2021/10/18 02:21:58;;;;;;;3.50;2.58;;;10.60;99.90;;;;;;5024893;28;20491;-80
2021/10/18 02:24:26;;;;;;;8.00;2.53;;;10.50;99.90;;;;;;5027058;28;20132;-80
2021/10/18 02:26:51;;;;;;;3.10;2.50;;;10.60;99.90;;;;;;5024355;28;20434;-77
2021/10/18 02:29:17;;;;;;;4.68;2.70;;;10.60;99.90;;;;;;5025712;28;20079;-77
2021/10/18 02:31:42;;;;;;;5.55;2.22;;;10.60;99.90;;;;;;5022636;28;20040;-77
2021/10/18 02:34:08;;;;;;;2.45;2.15;;;10.60;99.90;;;;;;5030420;28;20033;-78
2021/10/18 02:36:34;;;;;;;3.72;2.50;;;10.60;99.90;;;;;;5023302;28;20398;-78
2021/10/18 02:38:59;;;;;;;4.07;2.80;;;10.60;99.90;;;;;;5023390;28;20124;-78
2021/10/18 02:41:25;;;;;;;3.35;2.42;;;10.60;99.90;;;;;;5019530;28;20053;-78
2021/10/18 02:43:51;;;;;;;9.38;2.55;;;10.50;99.90;;;;;;5018610;28;20045;-79
2021/10/18 02:46:16;;;;;;;10.18;2.97;;;10.50;99.90;;;;;;5017756;28;20040;-78
2021/10/18 02:48:43;;;;;;;4.43;3.00;;;10.40;99.90;;;;;;5018569;28;20096;-80
2021/10/18 02:51:09;;;;;;;2.95;2.67;;;10.30;99.90;;;;;;5015480;28;20064;-81
2021/10/18 02:53:34;;;;;;;5.60;3.17;;;10.20;99.90;;;;;;5032259;28;20033;-79
2021/10/18 02:56:00;;;;;;;3.33;2.83;;;10.20;99.90;;;;;;5016120;28;20033;-79
2021/10/18 02:58:26;;;;;;;3.95;3.55;;;10.10;99.90;;;;;;5018329;28;20500;-80
2021/10/18 03:00:52;;;;;;;8.27;2.90;;;10.10;99.90;;;;;;5038582;28;20041;-80
2021/10/18 03:03:18;;;;;;;5.55;3.03;;;10.10;99.90;;;;;;5015026;28;20479;-79
2021/10/18 03:05:43;;;;;;;5.43;2.78;;;10.10;99.90;;;;;;5035475;28;20076;-79
2021/10/18 03:08:09;;;;;;;3.22;2.47;;;10.10;99.90;;;;;;5026121;28;20053;-79
2021/10/18 03:10:39;;;;;;;6.38;4.15;;;10.10;99.90;;;;;;5007347;28;20122;-77
2021/10/18 03:13:09;;;;;;;3.83;2.33;;;10.10;99.90;;;;;;5017545;28;20115;-76
2021/10/18 03:15:35;;;;;;;3.88;2.65;;;10.00;99.90;;;;;;5018554;28;20128;-77
2021/10/18 03:18:01;;;;;;;;;;;10.10;99.90;;;;;;5025970;28;20072;-77
2021/10/18 03:20:27;;;;;;;5.40;3.08;;;10.10;99.90;;;;;;5047434;28;19999;-78
2021/10/18 03:22:53;;;;;;;5.90;2.95;;;10.10;99.90;;;;;;5032742;28;20040;-77
2021/10/18 03:25:19;;;;;;;;;;;10.10;99.90;;;;;;5029124;28;20060;-77
2021/10/18 03:27:45;;;;;;;5.60;2.47;;;10.10;99.90;;;;;;5014021;28;19943;-78
2021/10/18 03:30:12;;;;;;;;;;;10.10;99.90;;;;;;5028363;28;20040;-79
2021/10/18 03:32:37;;;;;;;4.38;2.10;;;10.10;99.90;;;;;;5020443;28;19967;-78
2021/10/18 03:35:04;;;;;;;3.58;2.58;;;10.10;99.90;;;;;;5026572;28;20509;-77
2021/10/18 03:37:30;;;;;;;4.95;2.80;;;10.10;99.90;;;;;;5041448;28;20088;-78
2021/10/18 03:39:56;;;;;;;5.35;2.95;;;10.10;99.90;;;;;;5025957;28;20072;-81
2021/10/18 03:42:22;;;;;;;4.40;3.40;;;10.10;99.90;;;;;;5005645;28;20518;-79
2021/10/18 03:44:48;;;;;;;3.88;2.17;;;10.00;99.90;;;;;;5026862;28;20378;-80
2021/10/18 03:47:14;;;;;;;10.43;4.30;;;10.00;99.90;;;;;;5033849;28;20094;-79
2021/10/18 03:49:39;;;;;;;5.13;3.65;;;10.00;99.90;;;;;;5048356;28;20106;-78
2021/10/18 03:52:05;;;;;;;9.75;2.60;;;9.90;99.90;;;;;;5033496;28;20455;-80
2021/10/18 03:54:32;;;;;;;4.68;2.45;;;9.90;99.90;;;;;;5032965;28;20049;-80
2021/10/18 03:56:58;;;;;;;7.47;3.50;;;9.80;99.90;;;;;;5033102;28;20077;-78
2021/10/18 03:59:24;;;;;;;6.65;3.33;;;9.80;99.90;;;;;;5016020;28;20498;-79
2021/10/18 04:01:50;;;;;;;8.50;4.30;;;9.70;99.90;;;;;;5016659;28;20087;-76
2021/10/18 04:04:16;;;;;;;6.22;2.53;;;9.70;99.90;;;;;;5031907;28;20056;-77
2021/10/18 04:06:42;;;;;;;4.80;2.72;;;9.60;99.90;;;;;;5033718;28;20048;-80
2021/10/18 04:09:08;;;;;;;5.10;2.25;;;9.60;99.90;;;;;;5032534;28;20049;-78
2021/10/18 04:11:38;;;;;;;5.00;3.20;;;9.60;99.90;;;;;;5033031;28;20045;-77
2021/10/18 04:14:07;;;;;;;6.57;2.90;;;9.60;99.90;;;;;;5012569;28;20483;-79
2021/10/18 04:16:34;;;;;;;3.97;3.25;;;9.60;99.90;;;;;;5032310;28;20390;-77
2021/10/18 04:19:00;;;;;;;;;;;9.60;99.90;;;;;;5032017;28;20553;-78
2021/10/18 04:21:26;;;;;;;5.25;3.42;;;9.60;99.90;;;;;;5032422;28;20278;-76
2021/10/18 04:23:52;;;;;;;7.20;3.15;;;9.70;99.90;;;;;;5032728;28;20131;-76
2021/10/18 04:26:18;;;;;;;3.33;2.72;;;9.70;99.90;;;;;;5032097;28;20136;-79
2021/10/18 04:28:43;;;;;;;4.43;3.15;;;9.70;99.90;;;;;;5016039;28;20052;-77
2021/10/18 04:31:09;;;;;;;4.22;3.67;;;9.70;99.90;;;;;;5015046;28;20041;-78
2021/10/18 04:33:35;;;;;;;3.50;2.85;;;9.80;99.90;;;;;;5031697;28;20041;-77
2021/10/18 04:36:06;;;;;;;5.78;3.75;;;9.80;99.90;;;;;;5032018;28;20044;-77
2021/10/18 04:38:32;;;;;;;5.28;3.17;;;9.80;99.90;;;;;;5032374;28;20466;-77
2021/10/18 04:40:58;;;;;;;5.70;4.40;;;9.70;99.90;;;;;;5032707;28;20048;-79
2021/10/18 04:43:23;;;;;;;5.20;2.70;;;9.70;99.90;;;;;;5031923;28;20163;-78
2021/10/18 04:45:49;;;;;;;5.30;4.05;;;9.70;99.90;;;;;;5032159;28;20095;-79
2021/10/18 04:48:15;;;;;;;11.25;4.88;;;9.70;99.90;;;;;;5034659;28;20065;-76
2021/10/18 04:50:41;;;;;;;4.78;3.13;;;9.70;99.90;;;;;;5052710;28;20115;-76
2021/10/18 04:53:06;;;;;;;4.28;2.00;;;9.70;99.90;;;;;;5036952;28;20033;-78
2021/10/18 04:55:33;;;;;;;8.10;3.30;;;9.60;99.90;;;;;;5031940;28;20048;-77
2021/10/18 04:58:01;;;;;;;5.43;3.10;;;9.60;99.90;;;;;;5049339;28;20207;-79
2021/10/18 05:00:29;;;;;;;5.30;3.40;;;9.60;99.90;;;;;;5029660;28;20389;-77
2021/10/18 05:02:55;;;;;;;5.15;3.97;;;9.60;99.90;;;;;;5032464;28;20099;-77
2021/10/18 05:05:22;;;;;;;2.90;2.25;;;9.50;99.90;;;;;;5030869;28;20077;-78
2021/10/18 05:08:09;;;;;;;12.70;2.67;;;9.50;99.90;;;;;;5032585;28;20041;-78
2021/10/18 05:10:37;;;;;;;8.80;3.17;;;9.50;99.90;;;;;;5047861;28;20052;-76
2021/10/18 05:13:06;;;;;;;5.95;3.75;;;9.50;99.90;;;;;;5031804;28;20044;-78
2021/10/18 05:15:31;;;;;;;6.13;4.10;;;9.40;99.90;;;;;;5032112;28;20037;-76
2021/10/18 05:17:57;;;;;;;9.13;2.80;;;9.30;99.90;;;;;;5032586;28;20064;-79
2021/10/18 05:20:23;;;;;;;7.45;2.88;;;9.30;99.90;;;;;;5015643;28;20144;-77
2021/10/18 05:22:50;;;;;;;4.75;3.67;;;9.20;99.90;;;;;;5035448;28;20082;-79
2021/10/18 05:25:16;;;;;;;5.55;3.47;;;9.30;99.90;;;;;;5018862;28;20091;-78
2021/10/18 05:27:42;;;;;;;4.10;2.55;;;9.20;99.90;;;;;;5035762;28;20120;-77
2021/10/18 05:30:10;;;;;;;4.00;3.15;;;9.10;99.90;;;;;;5018424;28;20478;-77
2021/10/18 05:32:36;;;;;;;6.72;3.50;;;9.10;99.90;;;;;;5052970;28;20025;-78
2021/10/18 05:35:02;;;;;;;;;;;9.10;99.90;;;;;;5018504;28;20033;-78
2021/10/18 05:37:28;;;;;;;4.77;3.13;;;9.10;99.90;;;;;;5048823;28;19917;-77
2021/10/18 05:39:54;;;;;;;8.90;3.10;;;9.10;99.90;;;;;;5034691;28;20052;-78
2021/10/18 05:42:20;;;;;;;3.15;2.42;;;9.00;99.90;;;;;;5035112;28;20037;-76
2021/10/18 05:44:46;;;;;;;6.05;3.83;;;9.00;99.90;;;;;;5035104;28;20517;-76
2021/10/18 05:47:11;;;;;;;6.03;3.38;;;9.20;99.90;;;;;;5033385;28;20044;-76
2021/10/18 05:49:37;;;;;;;5.20;4.30;;;9.00;99.90;;;;;;5017903;28;20083;-77
2021/10/18 05:52:04;;;;;;;6.38;2.95;;;9.00;99.90;;;;;;5026820;28;20049;-76
2021/10/18 05:54:30;;;;;;;8.23;4.38;;;9.00;99.90;;;;;;5007229;28;20081;-76
2021/10/18 05:56:56;;;;;;;5.85;5.03;;;9.00;99.90;;;;;;5031772;28;20122;-78
2021/10/18 05:59:27;;;;;;;5.35;3.70;;;9.00;99.90;;;;;;4997832;28;20048;-76
2021/10/18 06:01:53;;;;;;;11.73;5.18;;;9.10;99.90;;;;;;5024777;28;20045;-76
2021/10/18 06:04:19;;;;;;;6.43;5.18;;;9.10;99.90;;;;;;5031884;28;20053;-77
2021/10/18 06:06:44;;;;;;;8.15;4.13;;;9.10;99.90;;;;;;5040960;28;20050;-78
2021/10/18 06:09:10;;;;;;;6.47;3.75;;;9.10;99.90;;;;;;4999422;28;20091;-77
2021/10/18 06:11:36;;;;;;;10.10;4.60;;;9.10;99.90;;;;;;5033635;28;20040;-78
2021/10/18 06:14:02;;;;;;;5.00;3.83;;;9.10;99.90;;;;;;5036141;28;20037;-78
2021/10/18 06:16:28;;;;;;;5.88;3.40;;;9.20;99.90;;;;;;5035288;28;20125;-77
2021/10/18 06:18:53;;;;;;;5.03;3.70;;;9.20;99.90;;;;;;5016942;28;20595;-78
2021/10/18 06:21:19;;;;;;;6.05;3.10;;;9.20;99.90;;;;;;5012253;28;20127;-76
2021/10/18 06:23:45;;;;;;;5.72;3.80;;;9.20;99.90;;;;;;5030903;28;20055;-78
2021/10/18 06:26:11;;;;;;;;;;;9.30;99.90;;;;;;5015398;28;20076;-77
2021/10/18 06:28:41;;;;;;;5.30;3.47;;;9.30;99.90;;;;;;5031664;28;19964;-79
2021/10/18 06:31:07;;;;;;;5.25;3.83;;;9.30;99.90;;;;;;5030330;28;20045;-80
2021/10/18 06:33:33;;;;;;;5.03;3.33;;;9.40;99.90;;;;;;5030219;28;20045;-76
2021/10/18 06:35:59;;;;;;;;;;;9.40;99.90;;;;;;5032619;28;20148;-79
2021/10/18 06:38:25;;;;;;;7.65;3.80;;;9.40;99.90;;;;;;5045531;28;20016;-78
2021/10/18 06:40:51;;;;;;;8.02;3.60;;;9.50;99.90;;;;;;5041669;28;20426;-78
2021/10/18 06:43:18;;;;;;;9.95;4.15;;;9.50;99.90;;;;;;5036740;28;20128;-80
2021/10/18 06:45:47;;;;;;;4.57;3.95;;;9.60;99.90;;;;;;5049542;28;20037;-78
2021/10/18 06:48:14;;;;;;;4.82;3.90;;;9.60;99.90;;;;;;5032013;28;20041;-80
2021/10/18 06:50:42;;;;;;;7.70;3.88;;;9.70;99.90;;;;;;5048749;28;20052;-77
2021/10/18 06:53:19;;;;;;;5.97;4.18;;;9.80;99.90;;;;;;5048949;28;20430;-79
2021/10/18 06:55:45;;;;;;;6.60;3.92;;;9.80;99.90;;;;;;5025477;28;20089;-77
2021/10/18 06:58:11;;;;;;;;;;;9.90;99.90;;;;;;5032132;28;20120;-77
2021/10/18 07:00:37;;;;;;;6.18;4.88;;;9.90;99.90;;;;;;5027015;28;20512;-80
2021/10/18 07:03:03;;;;;;;6.10;4.47;;;10.00;99.90;;;;;;5038274;28;20119;-80
2021/10/18 07:05:29;;;;;;;;;;;10.10;99.90;;;;;;5032691;28;20187;-78
2021/10/18 07:07:55;;;;;;;6.47;3.95;;;10.20;99.90;;;;;;5033858;28;20003;-79
2021/10/18 07:10:20;;;;;;;8.65;5.93;;;10.20;99.90;;;;;;5022941;28;20045;-79
2021/10/18 07:12:46;;;;;;;7.80;4.97;;;10.30;99.90;;;;;;5031134;28;20036;-79
2021/10/18 07:15:12;;;;;;;10.73;4.72;;;10.30;99.90;;;;;;5024618;28;20103;-79
2021/10/18 07:17:38;;;;;;;5.55;4.38;;;10.30;99.90;;;;;;5029151;28;20123;-80
2021/10/18 07:20:05;;;;;;;11.27;4.78;;;10.40;99.90;;;;;;5017485;28;20405;-79
2021/10/18 07:22:36;;;;;;;6.75;4.32;;;10.40;99.90;;;;;;5029593;28;20362;-80
2021/10/18 07:25:04;;;;;;;6.40;4.53;;;10.50;99.90;;;;;;4999377;28;20478;-77
2021/10/18 07:27:30;;;;;;;11.63;5.03;;;10.50;99.90;;;;;;5030317;28;20195;-79
2021/10/18 07:29:56;;;;;;;;;;;10.50;99.90;;;;;;4995325;28;20038;-80
2021/10/18 07:32:23;;;;;;;7.00;4.30;;;10.60;99.90;;;;;;5030641;28;19928;-78
2021/10/18 07:34:49;;;;;;;8.25;4.57;;;10.70;99.90;;;;;;5014246;28;20049;-78
2021/10/18 07:37:18;;;;;;;8.80;4.38;;;10.70;99.90;;;;;;5046929;28;20045;-81
2021/10/18 07:39:44;;;;;;;7.70;5.47;;;10.80;99.90;;;;;;5048341;28;20409;-79
2021/10/18 07:42:14;;;;;;;5.18;4.07;;;10.80;99.90;;;;;;5030489;28;20049;-78
2021/10/18 07:44:40;;;;;;;7.05;4.50;;;10.90;99.90;;;;;;5046480;28;20048;-79
2021/10/18 07:47:06;;;;;;;26.67;4.75;;;11.00;99.90;;;;;;5032170;28;20106;-79
2021/10/18 07:49:36;;;;;;;14.88;5.30;;;11.00;99.90;;;;;;5029326;28;20048;-77
2021/10/18 07:52:02;;;;;;;11.00;5.88;;;11.10;99.90;;;;;;5033484;28;20519;-77
2021/10/18 07:54:30;;;;;;;8.32;4.07;;;11.20;99.90;;;;;;5015775;28;20088;-78
2021/10/18 07:56:56;;;;;;;6.00;4.72;;;11.20;99.90;;;;;;5056625;28;20049;-78
2021/10/18 07:59:21;;;;;;;5.65;4.65;;;11.30;99.90;;;;;;5031362;28;20041;-78
2021/10/18 08:01:47;;;;;;;4.97;4.35;;;11.30;99.90;;;;;;5029831;28;20045;-78
2021/10/18 08:04:13;;;;;;;7.95;4.40;;;11.40;99.90;;;;;;5045979;28;20414;-78
2021/10/18 08:06:39;;;;;;;5.90;5.28;;;11.40;99.90;;;;;;5030947;28;20040;-78
2021/10/18 08:09:07;;;;;;;5.47;4.10;;;11.50;99.90;;;;;;5047973;28;20406;-78
2021/10/18 08:11:33;;;;;;;6.85;4.53;;;11.50;99.90;;;;;;5028981;28;20070;-78
2021/10/18 08:13:59;;;;;;;7.05;4.20;;;11.60;99.90;;;;;;5045585;28;20414;-77
2021/10/18 08:16:25;;;;;;;9.13;5.68;;;11.60;99.90;;;;;;5030452;28;20041;-78
2021/10/18 08:18:52;;;;;;;7.75;5.10;;;11.60;99.90;;;;;;5012599;28;20126;-79
2021/10/18 08:21:18;;;;;;;9.95;4.82;;;11.60;99.90;;;;;;5045302;28;20059;-78
2021/10/18 08:23:44;;;;;;;9.40;4.72;;;11.70;99.90;;;;;;5013436;28;20044;-80
2021/10/18 08:26:10;;;;;;;10.18;5.10;;;11.70;99.90;;;;;;5029551;28;20506;-79
2021/10/18 08:28:36;;;;;;;8.93;4.93;;;11.80;99.90;;;;;;5046824;28;20067;-79
2021/10/18 08:31:01;;;;;;;8.73;5.38;;;11.90;99.90;;;;;;5031318;28;20098;-80
2021/10/18 08:33:27;;;;;;;7.82;4.53;;;11.90;99.90;;;;;;5031680;28;20041;-78
2021/10/18 08:35:53;;;;;;;;;;;11.90;99.90;;;;;;5029875;28;20124;-78
2021/10/18 08:38:36;;;;;;;6.70;3.80;;;12.00;99.90;;;;;;5030767;28;20348;-76
2021/10/18 08:41:12;;;;;;;6.40;4.95;;;12.00;99.90;;;;;;5015327;28;20041;-76
2021/10/18 08:46:05;;;;;;;7.53;4.90;;;12.10;99.90;;;;;;5016162;28;20049;-79
2021/10/18 08:48:31;;;;;;;9.38;5.70;;;12.20;99.90;;;;;;5028084;28;20115;-78
2021/10/18 08:50:57;;;;;;;;;;;12.20;99.90;;;;;;5021105;28;20518;-79
2021/10/18 08:53:23;;;;;;;8.48;5.72;;;12.30;99.90;;;;;;5018998;28;19921;-79
2021/10/18 08:55:49;;;;;;;8.48;5.60;;;12.30;99.90;;;;;;5032112;28;20091;-80
2021/10/18 08:58:15;;;;;;;10.02;6.05;;;12.30;99.90;;;;;;5033280;28;20037;-79
2021/10/18 09:00:42;;;;;;;11.18;5.70;;;12.40;99.90;;;;;;5034742;28;20040;-80
2021/10/18 09:03:26;;;;;;;11.63;5.65;;;12.40;99.90;;;;;;5033861;28;20457;-78
2021/10/18 09:06:23;;;;;;;9.07;4.22;;;12.40;99.90;;;;;;5044548;28;20509;-79
2021/10/18 09:08:54;;;;;;;7.72;5.03;;;12.50;99.90;;;;;;5017204;28;20056;-78
2021/10/18 09:11:20;;;;;;;11.55;4.95;;;12.60;99.90;;;;;;5033044;28;20084;-80
2021/10/18 09:13:52;;;;;;;8.50;4.93;;;12.70;99.90;;;;;;5033205;28;20063;-77
2021/10/18 09:16:39;;;;;;;8.52;5.00;;;12.80;99.90;;;;;;5016463;28;20044;-76
2021/10/18 09:19:14;;;;;;;7.28;4.90;;;12.90;99.90;;;;;;5026973;28;20057;-79
2021/10/18 09:21:47;;;;;;;10.30;4.65;;;12.90;99.90;;;;;;5033325;28;20049;-77
2021/10/18 09:24:35;;;;;;;8.18;5.80;;;13.00;99.90;;;;;;5049870;28;20055;-78
2021/10/18 09:27:04;;;;;;;7.38;4.35;;;13.00;99.90;;;;;;5016715;28;20041;-78
2021/10/18 09:29:46;;;;;;;10.90;6.60;;;13.10;99.90;;;;;;5032890;28;20141;-78
2021/10/18 09:32:27;;;;;;;10.10;4.90;;;13.10;99.90;;;;;;5031610;28;20044;-80
2021/10/18 09:35:13;;;;;;;9.80;6.43;;;13.10;99.90;;;;;;5029158;28;20041;-79
2021/10/18 09:37:41;;;;;;;7.93;5.03;;;13.10;99.90;;;;;;5050135;28;20103;-78
2021/10/18 09:40:08;;;;;;;14.45;6.32;;;13.20;99.90;;;;;;5033540;28;20044;-78
2021/10/18 09:42:33;;;;;;;12.73;6.88;;;13.20;99.90;;;;;;5032441;28;20045;-79
2021/10/18 10:53:44;;;;;;;6.38;4.40;;;14.10;99.90;;;;;;5046705;28;20052;-78
2021/10/18 10:59:24;;;;;;;10.85;6.93;;;14.20;99.90;;;;;;5046268;28;20125;-77
2021/10/18 11:01:59;;;;;;;7.60;5.28;;;14.40;99.90;;;;;;5018029;28;20041;-78
2021/10/18 11:04:31;;;;;;;8.45;5.22;;;14.50;99.90;;;;;;5029247;28;20041;-77
2021/10/18 11:06:59;;;;;;;6.18;4.72;;;14.50;99.90;;;;;;5055721;28;20044;-78
2021/10/18 11:09:44;;;;;;;8.40;5.50;;;14.50;99.90;;;;;;5049887;28;20056;-78
2021/10/18 11:12:17;;;;;;;14.73;6.43;;;14.50;99.90;;;;;;5013895;28;20125;-78
2021/10/18 11:15:06;;;;;;;6.68;4.45;;;14.50;99.90;;;;;;5026796;28;20037;-78
2021/10/18 11:17:38;;;;;;;6.78;3.90;;;14.50;99.90;;;;;;5023784;28;20127;-77
2021/10/18 11:20:06;;;;;;;7.85;4.53;;;14.60;99.90;;;;;;5026903;28;20076;-78
2021/10/18 11:22:43;;;;;;;7.22;4.45;;;14.60;99.90;;;;;;5014296;28;20396;-80
2021/10/18 11:25:12;;;;;;;7.68;4.13;;;14.60;99.90;;;;;;5012379;28;20592;-78
2021/10/18 11:27:41;;;;;;;9.88;5.75;;;14.70;99.90;;;;;;5014101;28;20045;-78
2021/10/18 11:30:15;;;;;;;12.57;6.68;;;14.70;99.90;;;;;;5014551;28;20068;-77
2021/10/18 11:32:53;;;;;;;10.75;6.22;;;14.80;99.90;;;;;;5012496;28;20073;-78
2021/10/18 11:35:19;;;;;;;7.97;5.22;;;14.90;99.90;;;;;;5028293;28;20118;-77
2021/10/18 11:37:52;;;;;;;10.05;5.57;;;15.10;99.90;;;;;;5014055;28;20120;-79
2021/10/18 11:40:20;;;;;;;6.90;4.18;;;15.20;99.90;;;;;;5028999;28;20033;-78
2021/10/18 11:42:54;;;;;;;7.82;4.38;;;15.30;99.90;;;;;;5030447;28;20052;-78
2021/10/18 11:45:26;;;;;;;7.88;4.65;;;15.30;99.90;;;;;;5021150;28;20041;-79
2021/10/18 11:47:52;;;;;;;7.35;4.75;;;15.30;99.90;;;;;;5031613;28;20045;-79
2021/10/18 11:50:25;;;;;;;6.50;5.20;;;15.20;99.90;;;;;;5038207;28;20051;-78
2021/10/18 11:52:53;;;;;;;10.38;5.03;;;15.20;99.90;;;;;;5031705;28;20051;-79
2021/10/18 11:55:29;;;;;;;9.15;4.55;;;15.20;99.90;;;;;;5027958;28;20045;-80
2021/10/18 11:57:57;;;;;;;7.20;4.40;;;15.10;99.90;;;;;;5027926;28;20115;-78
2021/10/18 12:00:31;;;;;;;8.57;4.60;;;15.00;99.90;;;;;;5013080;28;20043;-78
2021/10/18 12:03:01;;;;;;;4.97;4.38;;;15.00;99.90;;;;;;5027539;28;20051;-78
2021/10/18 12:05:42;;;;;;;6.22;4.45;;;15.00;99.90;;;;;;4995839;28;20049;-79
2021/10/18 12:08:08;;;;;;;9.98;5.15;;;15.00;99.90;;;;;;5026072;28;20124;-78
2021/10/18 12:10:35;;;;;;;9.52;5.88;;;15.00;99.90;;;;;;5012752;28;20042;-77
2021/10/18 12:13:12;;;;;;;6.50;4.10;;;15.10;99.90;;;;;;5029651;28;20064;-79
2021/10/18 12:15:38;;;;;;;;;;;15.20;99.90;;;;;;5010440;28;20128;-78
2021/10/18 12:18:06;;;;;;;8.80;5.35;;;15.20;99.90;;;;;;5030531;28;20011;-79
2021/10/18 12:20:32;;;;;;;8.75;4.95;;;15.30;99.90;;;;;;5012053;28;20061;-78
2021/10/18 12:23:05;;;;;;;6.07;4.80;;;15.30;99.90;;;;;;5033727;28;20051;-79
2021/10/18 12:25:32;;;;;;;7.38;5.53;;;15.40;99.90;;;;;;5030332;28;20136;-78
2021/10/18 12:28:00;;;;;;;10.30;5.15;;;15.40;99.90;;;;;;5015930;28;20040;-78
2021/10/18 12:30:36;;;;;;;9.05;5.32;;;15.40;99.90;;;;;;5030625;28;20518;-78
2021/10/18 12:33:15;;;;;;;11.43;5.30;;;15.40;99.90;;;;;;5034338;28;20351;-77
2021/10/18 12:35:41;;;;;;;10.25;5.22;;;15.50;99.90;;;;;;5025137;28;20048;-77
2021/10/18 12:38:12;;;;;;;6.05;3.92;;;15.60;99.90;;;;;;5017634;28;20045;-77
2021/10/18 12:40:41;;;;;;;7.57;4.43;;;15.60;99.90;;;;;;5050469;28;20045;-78
2021/10/18 12:43:26;;;;;;;7.82;4.57;;;15.60;99.90;;;;;;5030444;28;20123;-77
2021/10/18 12:45:52;;;;;;;5.28;4.38;;;15.70;99.90;;;;;;5034315;28;20072;-78
2021/10/18 12:48:22;;;;;;;7.82;4.35;;;15.80;99.90;;;;;;5017315;28;20055;-79
2021/10/18 12:50:49;;;;;;;8.80;4.45;;;15.80;99.90;;;;;;5049777;28;20067;-78
2021/10/18 12:53:33;;;;;;;8.75;5.28;;;15.80;99.90;;;;;;5034682;28;20133;-78
2021/10/18 12:55:59;;;;;;;7.90;4.90;;;15.70;99.90;;;;;;5033423;28;20151;-79
2021/10/18 12:58:27;;;;;;;7.38;4.18;;;15.60;99.90;;;;;;5033047;28;20044;-78
2021/10/18 13:00:53;;;;;;;6.82;4.70;;;15.60;99.90;;;;;;5033190;28;20115;-80
2021/10/18 13:03:20;;;;;;;;;;;15.50;99.90;;;;;;5034703;28;20486;-79
2021/10/18 13:05:55;;;;;;;6.82;3.55;;;15.40;99.90;;;;;;5016194;28;19917;-78
2021/10/18 13:08:23;;;;;;;6.38;3.78;;;15.40;99.90;;;;;;5033294;28;20072;-80
2021/10/18 13:10:51;;;;;;;10.10;5.38;;;15.40;99.90;;;;;;5032564;28;20388;-77
2021/10/18 13:13:18;;;;;;;6.10;4.57;;;15.40;99.90;;;;;;5050244;28;20033;-78
2021/10/18 13:15:46;;;;;;;13.18;5.13;;;15.30;99.90;;;;;;5027764;28;20041;-79
2021/10/18 13:18:13;;;;;;;5.70;4.18;;;15.30;99.90;;;;;;5016298;28;20146;-79
2021/10/18 13:20:40;;;;;;;9.40;4.85;;;15.40;99.90;;;;;;5012199;28;20057;-79
2021/10/18 13:23:07;;;;;;;8.18;4.47;;;15.30;99.90;;;;;;5027001;28;20094;-79
2021/10/18 13:25:39;;;;;;;6.00;4.00;;;15.40;99.90;;;;;;5032894;28;20052;-79
2021/10/18 13:28:06;;;;;;;8.95;4.72;;;15.30;99.90;;;;;;5025687;28;20045;-80
2021/10/18 13:30:32;;;;;;;8.35;4.88;;;15.30;99.90;;;;;;5028866;28;20282;-80
2021/10/18 13:32:59;;;;;;;;;;;15.30;99.90;;;;;;5013530;28;20095;-80
2021/10/18 13:35:25;;;;;;;12.10;4.95;;;15.30;99.90;;;;;;5008102;28;20372;-80
2021/10/18 13:37:52;;;;;;;8.35;3.53;;;15.30;99.90;;;;;;5035596;28;20442;-80
2021/10/18 13:40:20;;;;;;;6.88;4.78;;;15.30;99.90;;;;;;5021565;28;20049;-80
2021/10/18 13:42:47;;;;;;;8.57;4.13;;;15.50;99.90;;;;;;5002833;28;20115;-80
2021/10/18 13:45:16;;;;;;;12.10;4.32;;;15.70;99.90;;;;;;5031912;28;20045;-80
2021/10/18 13:47:42;;;;;;;11.68;4.85;;;16.00;99.90;;;;;;5015167;28;20037;-78
2021/10/18 13:50:08;;;;;;;6.35;4.10;;;16.20;99.90;;;;;;5015617;28;20055;-77
2021/10/18 13:52:35;;;;;;;9.00;4.78;;;16.30;99.90;;;;;;5032978;28;20041;-78
2021/10/18 13:55:04;;;;;;;6.72;3.33;;;16.30;99.90;;;;;;5016455;28;20071;-78
2021/10/18 13:57:31;;;;;;;6.60;4.05;;;16.30;99.90;;;;;;5031604;28;20056;-79
2021/10/18 13:59:57;;;;;;;9.23;4.68;;;16.20;99.90;;;;;;5033789;28;20053;-79
2021/10/18 14:02:23;;;;;;;;;;;16.00;99.90;;;;;;5033133;28;20064;-79
2021/10/18 14:04:49;;;;;;;10.68;5.25;;;15.90;99.90;;;;;;5023315;28;19979;-79
2021/10/18 14:07:15;;;;;;;;;;;15.80;99.90;;;;;;5022737;28;20049;-79
2021/10/18 14:09:43;;;;;;;8.30;4.45;;;15.70;99.90;;;;;;5050924;28;19948;-78